createdAt,value
2018-05-02T13:10:52.457Z,26.93
2018-05-02T13:11:52.302Z,26.94
2018-05-02T13:12:52.291Z,26.73
2018-05-02T13:17:35.867Z,27.02
2018-05-02T13:18:35.867Z,27.02
2018-05-02T13:19:35.858Z,27.03
2018-05-02T13:20:35.853Z,27.13
2018-05-02T13:21:35.849Z,27.05
2018-05-02T13:22:35.860Z,27.03
2018-05-02T13:23:35.842Z,26.79
2018-05-02T13:24:35.857Z,26.61
2018-05-02T13:25:35.848Z,26.60
2018-05-02T13:26:36.151Z,26.69
2018-05-02T13:27:35.847Z,26.86
2018-05-02T13:28:35.837Z,27.08
2018-05-02T13:29:36.034Z,27.12
2018-05-02T13:30:35.829Z,27.18
2018-05-02T13:31:35.822Z,27.39
2018-05-02T13:32:35.833Z,27.31
2018-05-02T13:33:35.824Z,27.35
2018-05-02T13:47:02.989Z,27.55
2018-05-02T13:48:02.989Z,27.61
2018-05-02T13:49:02.985Z,27.66
2018-05-02T13:50:02.985Z,27.83
2018-05-02T13:51:02.982Z,27.93
2018-05-02T13:52:02.980Z,28.11
2018-05-02T13:53:02.977Z,27.83
2018-05-02T13:54:02.977Z,27.52
2018-05-02T13:55:02.975Z,27.45
2018-05-02T13:56:02.971Z,27.59
2018-05-02T13:57:02.973Z,27.71
2018-05-02T13:58:02.968Z,27.61
2018-05-02T13:59:02.965Z,27.76
2018-05-02T14:00:02.965Z,27.86
2018-05-02T14:01:03.006Z,27.93
2018-05-02T14:02:02.962Z,28.08
2018-05-02T14:03:02.959Z,28.32
2018-05-02T14:04:02.956Z,28.28
2018-05-02T14:05:02.958Z,28.36
2018-05-02T14:06:02.955Z,28.30
2018-05-02T14:07:02.957Z,28.42
2018-05-02T14:08:02.951Z,28.36
2018-05-02T14:09:02.951Z,28.51
2018-05-02T14:10:02.951Z,28.61
2018-05-02T14:11:02.945Z,28.67
2018-05-02T14:12:02.948Z,28.61
2018-05-02T14:13:02.943Z,28.72
2018-05-02T14:14:02.942Z,28.80
2018-05-02T14:15:02.939Z,28.77
2018-05-02T14:16:02.953Z,28.82
2018-05-02T14:17:02.937Z,28.82
2018-05-02T14:18:02.942Z,28.73
2018-05-02T14:19:02.955Z,28.51
2018-05-02T14:20:02.935Z,28.46
2018-05-02T14:21:02.932Z,28.43
2018-05-02T14:22:02.932Z,28.46
2018-05-02T14:23:02.930Z,28.43
2018-05-02T14:24:02.928Z,28.42
2018-05-02T14:25:02.927Z,28.35
2018-05-02T14:26:02.927Z,28.33
2018-05-02T14:27:02.925Z,28.38
2018-05-02T14:28:02.924Z,28.09
2018-05-02T14:29:02.923Z,28.14
2018-05-02T14:30:02.923Z,28.11
2018-05-02T14:31:02.918Z,28.09
2018-05-02T14:32:02.922Z,28.14
2018-05-02T14:33:02.917Z,28.27
2018-05-02T14:34:02.916Z,28.24
2018-05-02T14:35:02.915Z,28.30
2018-05-02T14:36:02.912Z,28.33
2018-05-02T14:37:02.911Z,28.27
2018-05-02T14:38:02.947Z,27.88
2018-05-02T14:39:02.907Z,27.91
2018-05-02T14:40:02.910Z,27.93
2018-05-02T14:41:02.906Z,27.98
2018-05-02T14:42:02.903Z,28.13
2018-05-02T14:43:02.902Z,28.08
2018-05-02T14:44:02.900Z,28.08
2018-05-02T14:45:02.903Z,28.11
2018-05-02T14:46:02.902Z,28.01
2018-05-02T14:47:02.898Z,27.93
2018-05-02T14:48:02.910Z,27.48
2018-05-02T14:49:02.893Z,27.48
2018-05-02T14:50:02.892Z,27.48
2018-05-02T14:51:02.889Z,27.39
2018-05-02T14:52:02.887Z,27.31
2018-05-02T14:53:02.884Z,27.34
2018-05-02T14:54:02.883Z,27.30
2018-05-02T14:55:02.881Z,27.28
2018-05-02T14:56:02.880Z,27.33
2018-05-02T14:57:02.879Z,27.35
2018-05-02T14:58:02.876Z,27.24
2018-05-02T14:59:02.872Z,27.06
2018-05-02T15:00:02.872Z,26.97
2018-05-02T15:01:02.869Z,26.94
2018-05-02T15:02:02.958Z,26.90
2018-05-02T15:03:02.873Z,26.91
2018-05-02T15:04:02.863Z,26.93
2018-05-02T15:05:02.862Z,26.98
2018-05-02T15:06:02.859Z,27.05
2018-05-02T15:07:02.856Z,27.01
2018-05-02T15:08:02.854Z,27.06
2018-05-02T15:09:02.854Z,27.02
2018-05-02T15:10:03.050Z,26.96
2018-05-02T15:11:02.848Z,26.96
2018-05-02T15:12:02.847Z,26.93
2018-05-02T15:13:02.843Z,26.98
2018-05-02T15:14:02.841Z,26.98
2018-05-02T15:15:02.841Z,26.88
2018-05-02T15:16:02.835Z,26.79
2018-05-02T15:17:02.836Z,26.90
2018-05-02T15:18:02.848Z,26.83
2018-05-02T15:19:02.832Z,26.65
2018-05-02T15:20:02.826Z,26.65
2018-05-02T15:21:02.822Z,26.57
2018-05-02T15:22:02.821Z,26.56
2018-05-02T15:23:02.818Z,26.46
2018-05-02T15:24:02.867Z,26.41
2018-05-02T15:25:02.813Z,26.29
2018-05-02T15:26:02.809Z,26.12
2018-05-02T15:27:02.807Z,26.11
2018-05-02T15:28:02.804Z,26.00
2018-05-02T15:29:02.802Z,25.98
2018-05-02T15:30:02.797Z,25.83
2018-05-02T15:31:02.798Z,25.66
2018-05-02T15:32:02.793Z,25.61
2018-05-02T15:33:02.789Z,25.61
2018-05-02T15:34:02.785Z,25.57
2018-05-02T15:35:02.780Z,25.59
2018-05-02T15:36:02.778Z,25.49
2018-05-02T15:37:02.774Z,25.39
2018-05-02T15:38:02.771Z,25.48
2018-05-02T15:39:02.770Z,25.41
2018-05-02T15:40:02.764Z,25.45
2018-05-02T15:41:02.760Z,25.38
2018-05-02T15:42:02.757Z,25.38
2018-05-02T15:43:02.751Z,25.46
2018-05-02T15:44:02.750Z,25.38
2018-05-02T15:45:02.746Z,25.29
2018-05-02T15:46:02.742Z,25.26
2018-05-02T15:47:02.738Z,25.23
2018-05-02T15:48:02.740Z,25.12
2018-05-02T15:49:02.729Z,25.24
2018-05-02T15:50:02.727Z,25.34
2018-05-02T15:51:02.724Z,25.24
2018-05-02T15:52:02.763Z,25.16
2018-05-02T15:53:02.715Z,25.12
2018-05-02T15:54:02.711Z,25.11
2018-05-02T15:55:02.706Z,25.08
2018-05-02T15:56:02.750Z,25.20
2018-05-02T15:57:02.697Z,25.30
2018-05-02T15:58:02.796Z,25.30
2018-05-02T15:59:02.690Z,25.29
2018-05-02T16:00:02.687Z,25.29
2018-05-02T16:01:02.682Z,25.41
2018-05-02T16:02:02.711Z,25.44
2018-05-02T16:03:02.680Z,25.46
2018-05-02T16:04:02.679Z,25.41
2018-05-02T16:05:02.674Z,25.30
2018-05-02T16:06:02.669Z,25.30
2018-05-02T16:07:02.664Z,25.22
2018-05-02T16:08:02.663Z,25.08
2018-05-02T16:09:02.655Z,25.19
2018-05-02T16:10:02.736Z,25.09
2018-05-02T16:11:02.647Z,25.01
2018-05-02T16:12:02.648Z,25.08
2018-05-02T16:13:02.639Z,25.01
2018-05-02T16:14:02.640Z,24.90
2018-05-02T16:15:02.631Z,24.90
2018-05-02T16:16:02.631Z,24.92
2018-05-02T16:17:02.622Z,24.90
2018-05-02T16:18:02.619Z,24.94
2018-05-02T16:19:02.615Z,24.86
2018-05-02T16:20:02.613Z,24.92
2018-05-02T16:21:02.606Z,24.90
2018-05-02T16:22:02.618Z,24.92
2018-05-02T16:23:02.597Z,24.82
2018-05-02T16:24:02.594Z,24.87
2018-05-02T16:25:02.590Z,24.86
2018-05-02T16:26:02.585Z,24.87
2018-05-02T16:27:02.588Z,24.83
2018-05-02T16:28:02.575Z,24.87
2018-05-02T16:29:02.573Z,24.93
2018-05-02T16:30:02.569Z,24.92
2018-05-02T16:31:02.565Z,24.82
2018-05-02T16:32:02.559Z,24.86
2018-05-02T16:33:02.553Z,24.87
2018-05-02T16:34:02.551Z,24.86
2018-05-02T16:35:02.546Z,24.84
2018-05-02T16:36:02.541Z,25.04
2018-05-02T16:37:02.538Z,24.89
2018-05-02T16:38:02.536Z,25.01
2018-05-02T16:39:02.545Z,24.94
2018-05-02T16:40:02.524Z,25.01
2018-05-02T16:41:02.519Z,25.08
2018-05-02T16:42:02.517Z,25.07
2018-05-02T16:43:02.510Z,25.12
2018-05-02T16:44:02.508Z,25.14
2018-05-02T16:45:02.520Z,25.14
2018-05-02T16:46:02.499Z,25.12
2018-05-02T16:47:02.494Z,25.12
2018-05-02T16:48:02.489Z,25.12
2018-05-02T16:49:02.575Z,25.12
2018-05-02T16:50:02.486Z,25.14
2018-05-02T16:51:02.484Z,25.11
2018-05-02T16:52:02.475Z,25.20
2018-05-02T16:53:02.470Z,25.26
2018-05-02T16:54:02.465Z,25.22
2018-05-02T16:55:02.460Z,25.26
2018-05-02T16:56:02.457Z,25.26
2018-05-02T16:57:02.454Z,25.22
2018-05-02T16:58:02.452Z,25.31
2018-05-02T16:59:02.445Z,25.24
2018-05-02T17:00:02.592Z,25.14
2018-05-02T17:01:02.437Z,25.22
2018-05-02T17:02:02.432Z,25.07
2018-05-02T17:03:02.428Z,25.11
2018-05-02T17:04:02.510Z,25.17
2018-05-02T17:05:02.422Z,25.14
2018-05-02T17:06:02.417Z,25.09
2018-05-02T17:07:02.411Z,24.89
2018-05-02T17:08:02.407Z,24.87
2018-05-02T17:09:02.418Z,24.87
2018-05-02T17:10:02.401Z,24.89
2018-05-02T17:11:02.396Z,24.89
2018-05-02T17:12:02.396Z,24.90
2018-05-02T17:13:02.388Z,24.75
2018-05-02T17:14:02.384Z,24.71
2018-05-02T17:15:02.378Z,24.77
2018-05-02T17:16:02.375Z,24.75
2018-05-02T17:17:02.369Z,24.67
2018-05-02T17:18:02.365Z,24.70
2018-05-02T17:19:02.366Z,24.66
2018-05-02T17:20:02.357Z,24.63
2018-05-02T17:21:02.351Z,24.61
2018-05-02T17:22:02.393Z,24.67
2018-05-02T17:23:02.341Z,24.67
2018-05-02T17:24:02.337Z,24.71
2018-05-02T17:25:02.334Z,24.63
2018-05-02T17:26:02.331Z,24.61
2018-05-02T17:27:02.327Z,24.61
2018-05-02T17:28:02.324Z,24.59
2018-05-02T17:29:02.320Z,24.55
2018-05-02T17:30:02.327Z,24.53
2018-05-02T17:31:02.315Z,24.55
2018-05-02T17:32:02.305Z,24.61
2018-05-02T17:33:02.301Z,24.48
2018-05-02T17:34:02.297Z,24.45
2018-05-02T17:35:02.291Z,24.44
2018-05-02T17:36:02.287Z,24.48
2018-05-02T17:37:02.283Z,24.53
2018-05-02T17:38:02.279Z,24.53
2018-05-02T17:39:02.274Z,24.49
2018-05-02T17:40:02.268Z,24.45
2018-05-02T17:41:02.264Z,24.36
2018-05-02T17:42:02.261Z,24.39
2018-05-02T17:43:02.255Z,24.34
2018-05-02T17:44:02.251Z,24.27
2018-05-02T17:45:02.324Z,24.36
2018-05-02T17:46:02.244Z,24.37
2018-05-02T17:47:02.237Z,24.39
2018-05-02T17:48:02.235Z,24.37
2018-05-02T17:49:02.226Z,24.41
2018-05-02T17:50:02.223Z,24.36
2018-05-02T17:51:02.217Z,24.37
2018-05-02T17:52:02.213Z,24.29
2018-05-02T17:53:02.210Z,24.36
2018-05-02T17:54:02.204Z,24.34
2018-05-02T17:55:02.199Z,24.37
2018-05-02T17:56:02.203Z,24.31
2018-05-02T17:57:02.189Z,24.33
2018-05-02T17:58:02.184Z,24.27
2018-05-02T17:59:02.180Z,24.34
2018-05-02T18:00:02.376Z,24.37
2018-05-02T18:01:02.169Z,24.36
2018-05-02T18:02:02.166Z,24.34
2018-05-02T18:03:02.161Z,24.33
2018-05-02T18:04:02.155Z,24.29
2018-05-02T18:05:02.152Z,24.31
2018-05-02T18:06:02.146Z,24.29
2018-05-02T18:07:02.144Z,24.29
2018-05-02T18:08:02.135Z,24.15
2018-05-02T18:09:02.133Z,24.24
2018-05-02T18:10:02.127Z,24.18
2018-05-02T18:11:02.121Z,24.08
2018-05-02T18:12:02.115Z,24.14
2018-05-02T18:13:02.113Z,24.02
2018-05-02T18:14:02.108Z,24.02
2018-05-02T18:15:02.103Z,24.00
2018-05-02T18:16:02.103Z,24.00
2018-05-02T18:17:02.091Z,24.00
2018-05-02T18:18:02.086Z,23.97
2018-05-02T18:19:02.073Z,23.94
2018-05-02T18:20:02.067Z,23.99
2018-05-02T18:21:02.064Z,24.00
2018-05-02T18:22:02.056Z,24.16
2018-05-02T18:23:02.053Z,24.09
2018-05-02T18:24:02.049Z,24.08
2018-05-02T18:25:02.049Z,24.12
2018-05-02T18:26:02.037Z,24.19
2018-05-02T18:27:02.032Z,24.23
2018-05-02T18:28:02.044Z,24.24
2018-05-02T18:29:02.024Z,24.15
2018-05-02T18:30:02.018Z,24.24
2018-05-02T18:31:02.012Z,24.27
2018-05-02T18:32:02.008Z,24.27
2018-05-02T18:33:02.002Z,24.34
2018-05-02T18:34:01.997Z,24.26
2018-05-02T18:35:01.993Z,24.15
2018-05-02T18:36:01.988Z,24.23
2018-05-02T18:37:01.983Z,24.18
2018-05-02T18:38:01.978Z,24.12
2018-05-02T18:39:01.972Z,24.12
2018-05-02T18:40:01.969Z,24.04
2018-05-02T18:41:01.963Z,23.96
2018-05-02T18:42:01.960Z,23.92
2018-05-02T18:43:01.956Z,23.74
2018-05-02T18:44:01.948Z,23.86
2018-05-02T18:45:01.945Z,23.86
2018-05-02T18:46:01.939Z,23.82
2018-05-02T18:47:01.936Z,23.68
2018-05-02T18:48:01.932Z,23.71
2018-05-02T18:49:01.923Z,23.78
2018-05-02T18:50:01.922Z,23.67
2018-05-02T18:51:01.912Z,23.78
2018-05-02T18:52:01.909Z,23.81
2018-05-02T18:53:01.903Z,23.82
2018-05-02T18:54:01.897Z,23.78
2018-05-02T18:55:01.892Z,23.71
2018-05-02T18:56:01.887Z,23.74
2018-05-02T18:57:01.883Z,23.64
2018-05-02T18:58:01.880Z,23.69
2018-05-02T18:59:01.873Z,23.74
2018-05-02T19:00:01.869Z,23.64
2018-05-02T19:01:01.863Z,23.64
2018-05-02T19:02:01.858Z,23.60
2018-05-02T19:03:01.852Z,23.62
2018-05-02T19:04:01.845Z,23.63
2018-05-02T19:05:01.842Z,23.63
2018-05-02T19:06:01.837Z,23.63
2018-05-02T19:07:01.829Z,23.71
2018-05-02T19:08:01.825Z,23.63
2018-05-02T19:09:01.819Z,23.72
2018-05-02T19:10:01.817Z,23.74
2018-05-02T19:11:01.808Z,23.77
2018-05-02T19:12:01.803Z,23.71
2018-05-02T19:13:01.799Z,23.74
2018-05-02T19:14:01.803Z,23.67
2018-05-02T19:15:01.790Z,23.67
2018-05-02T19:16:01.782Z,23.59
2018-05-02T19:17:01.778Z,23.44
2018-05-02T19:18:01.772Z,23.42
2018-05-02T19:19:01.769Z,23.49
2018-05-02T19:20:01.762Z,23.44
2018-05-02T19:21:01.757Z,23.39
2018-05-02T19:22:01.755Z,23.41
2018-05-02T19:23:01.745Z,23.38
2018-05-02T19:24:01.788Z,23.38
2018-05-02T19:25:01.737Z,23.44
2018-05-02T19:26:01.729Z,23.52
2018-05-02T19:27:01.724Z,23.44
2018-05-02T19:28:01.717Z,23.47
2018-05-02T19:29:01.712Z,23.44
2018-05-02T19:30:01.708Z,23.25
2018-05-02T19:31:01.702Z,23.29
2018-05-02T19:32:01.697Z,23.16
2018-05-02T19:33:01.692Z,23.15
2018-05-02T19:34:01.688Z,23.18
2018-05-02T19:35:01.686Z,23.09
2018-05-02T19:36:01.675Z,23.14
2018-05-02T19:37:01.671Z,23.09
2018-05-02T19:38:01.667Z,23.01
2018-05-02T19:39:01.662Z,23.09
2018-05-02T19:40:01.653Z,23.03
2018-05-02T19:41:01.646Z,23.03
2018-05-02T19:42:01.640Z,23.11
2018-05-02T19:43:01.634Z,23.07
2018-05-02T19:44:01.830Z,23.09
2018-05-02T19:45:01.623Z,23.06
2018-05-02T19:46:01.618Z,22.99
2018-05-02T19:47:01.613Z,23.00
2018-05-02T19:48:01.607Z,23.12
2018-05-02T19:49:01.601Z,22.99
2018-05-02T19:50:01.597Z,22.85
2018-05-02T19:51:01.663Z,22.88
2018-05-02T19:52:01.584Z,22.81
2018-05-02T19:53:01.579Z,22.78
2018-05-02T19:54:01.574Z,22.86
2018-05-02T19:55:01.568Z,22.79
2018-05-02T19:56:02.107Z,22.78
2018-05-02T19:57:01.559Z,22.82
2018-05-02T19:58:01.549Z,22.81
2018-05-02T19:59:01.543Z,22.74
2018-05-02T20:00:01.538Z,22.75
2018-05-02T20:01:01.533Z,22.67
2018-05-02T20:02:01.527Z,22.69
2018-05-02T20:03:01.522Z,22.70
2018-05-02T20:04:01.514Z,22.64
2018-05-02T20:05:01.509Z,22.59
2018-05-02T20:06:01.502Z,22.57
2018-05-02T20:07:01.497Z,22.61
2018-05-02T20:08:01.491Z,22.57
2018-05-02T20:09:01.487Z,22.63
2018-05-02T20:10:01.478Z,22.48
2018-05-02T20:11:01.472Z,22.48
2018-05-02T20:12:01.465Z,22.54
2018-05-02T20:13:01.461Z,22.46
2018-05-02T20:14:01.454Z,22.48
2018-05-02T20:15:01.450Z,22.45
2018-05-02T20:16:01.442Z,22.45
2018-05-02T20:17:01.435Z,22.46
2018-05-02T20:18:01.430Z,22.39
2018-05-02T20:19:01.477Z,22.44
2018-05-02T20:20:01.421Z,22.36
2018-05-02T20:21:01.411Z,22.35
2018-05-02T20:22:01.422Z,22.35
2018-05-02T20:23:01.446Z,22.30
2018-05-02T20:24:01.392Z,22.35
2018-05-02T20:25:01.387Z,22.26
2018-05-02T20:26:01.381Z,22.26
2018-05-02T20:27:01.374Z,22.20
2018-05-02T20:28:01.367Z,22.19
2018-05-02T20:29:01.361Z,22.14
2018-05-02T20:30:01.385Z,22.21
2018-05-02T20:31:01.353Z,22.14
2018-05-02T20:32:01.346Z,22.17
2018-05-02T20:33:01.338Z,22.19
2018-05-02T20:34:01.331Z,22.12
2018-05-02T20:35:01.324Z,22.09
2018-05-02T20:36:01.317Z,22.09
2018-05-02T20:37:01.311Z,22.06
2018-05-02T20:38:01.305Z,22.05
2018-05-02T20:39:01.299Z,21.99
2018-05-02T20:40:01.292Z,22.01
2018-05-02T20:41:01.291Z,21.93
2018-05-02T20:42:01.294Z,21.91
2018-05-02T20:43:01.273Z,21.91
2018-05-02T20:44:01.285Z,21.82
2018-05-02T20:45:01.260Z,21.81
2018-05-02T20:46:01.254Z,21.66
2018-05-02T20:47:01.245Z,21.63
2018-05-02T20:48:01.240Z,21.70
2018-05-02T20:49:01.235Z,21.73
2018-05-02T20:50:01.228Z,21.66
2018-05-02T20:51:01.222Z,21.67
2018-05-02T20:52:01.215Z,21.63
2018-05-02T20:53:01.207Z,21.71
2018-05-02T20:54:01.200Z,21.67
2018-05-02T20:55:01.304Z,21.66
2018-05-02T20:56:01.189Z,21.68
2018-05-02T20:57:01.181Z,21.71
2018-05-02T20:58:01.174Z,21.63
2018-05-02T20:59:01.166Z,21.68
2018-05-02T21:00:01.160Z,21.70
2018-05-02T21:01:01.154Z,21.71
2018-05-02T21:02:01.147Z,21.71
2018-05-02T21:03:01.139Z,21.63
2018-05-02T21:04:01.134Z,21.64
2018-05-02T21:05:01.127Z,21.73
2018-05-02T21:06:01.120Z,21.66
2018-05-02T21:07:01.113Z,21.67
2018-05-02T21:08:01.107Z,21.68
2018-05-02T21:09:01.101Z,21.71
2018-05-02T21:10:01.096Z,21.81
2018-05-02T21:11:01.088Z,21.83
2018-05-02T21:12:01.080Z,21.75
2018-05-02T21:13:01.073Z,21.74
2018-05-02T21:14:01.069Z,21.85
2018-05-02T21:15:01.062Z,21.82
2018-05-02T21:16:01.055Z,21.82
2018-05-02T21:17:01.049Z,21.86
2018-05-02T21:18:01.041Z,21.73
2018-05-02T21:19:01.035Z,21.66
2018-05-02T21:20:01.028Z,21.67
2018-05-02T21:21:01.023Z,21.64
2018-05-02T21:22:01.017Z,21.66
2018-05-02T21:23:01.010Z,21.61
2018-05-02T21:24:01.002Z,21.58
2018-05-02T21:25:00.997Z,21.61
2018-05-02T21:26:00.990Z,21.52
2018-05-02T21:27:00.982Z,21.61
2018-05-02T21:28:00.974Z,21.61
2018-05-02T21:29:00.968Z,21.64
2018-05-02T21:30:00.962Z,21.64
2018-05-02T21:31:01.018Z,21.67
2018-05-02T21:32:00.948Z,21.58
2018-05-02T21:33:00.946Z,21.67
2018-05-02T21:34:00.936Z,21.64
2018-05-02T21:35:00.928Z,21.67
2018-05-02T21:36:00.922Z,21.66
2018-05-02T21:37:00.918Z,21.63
2018-05-02T21:38:00.966Z,21.67
2018-05-02T21:39:00.902Z,21.66
2018-05-02T21:40:00.896Z,21.64
2018-05-02T21:41:00.888Z,21.58
2018-05-02T21:42:00.882Z,21.61
2018-05-02T21:43:00.875Z,21.58
2018-05-02T21:44:00.867Z,21.59
2018-05-02T21:45:00.866Z,21.66
2018-05-02T21:46:00.855Z,21.61
2018-05-02T21:47:00.851Z,21.56
2018-05-02T21:48:00.841Z,21.59
2018-05-02T21:49:00.834Z,21.64
2018-05-02T21:50:00.829Z,21.55
2018-05-02T21:51:00.822Z,21.58
2018-05-02T21:52:00.817Z,21.55
2018-05-02T21:53:00.809Z,21.59
2018-05-02T21:54:00.802Z,21.68
2018-05-02T21:55:00.794Z,21.66
2018-05-02T21:56:00.787Z,21.63
2018-05-02T21:57:00.781Z,21.53
2018-05-02T21:58:00.775Z,21.53
2018-05-02T21:59:00.767Z,21.58
2018-05-02T22:00:00.761Z,21.56
2018-05-02T22:01:00.755Z,21.55
2018-05-02T22:02:00.748Z,21.61
2018-05-02T22:03:00.740Z,21.58
2018-05-02T22:04:00.733Z,21.61
2018-05-02T22:05:00.727Z,21.66
2018-05-02T22:06:00.722Z,21.70
2018-05-02T22:07:00.714Z,21.68
2018-05-02T22:08:00.708Z,21.66
2018-05-02T22:09:00.770Z,21.63
2018-05-02T22:10:00.695Z,21.64
2018-05-02T22:11:00.687Z,21.68
2018-05-02T22:12:00.682Z,21.67
2018-05-02T22:13:00.674Z,21.68
2018-05-02T22:14:00.670Z,21.66
2018-05-02T22:15:00.662Z,21.66
2018-05-02T22:16:00.655Z,21.67
2018-05-02T22:17:00.648Z,21.61
2018-05-02T22:18:00.641Z,21.68
2018-05-02T22:19:00.633Z,21.71
2018-05-02T22:20:00.633Z,21.66
2018-05-02T22:21:00.621Z,21.66
2018-05-02T22:22:00.615Z,21.68
2018-05-02T22:23:00.608Z,21.66
2018-05-02T22:24:00.601Z,21.66
2018-05-02T22:25:00.596Z,21.61
2018-05-02T22:26:00.592Z,21.63
2018-05-02T22:27:00.580Z,21.68
2018-05-02T22:28:00.577Z,21.73
2018-05-02T22:29:00.568Z,21.75
2018-05-02T22:30:00.561Z,21.71
2018-05-02T22:31:00.555Z,21.64
2018-05-02T22:32:00.547Z,21.70
2018-05-02T22:33:00.542Z,21.81
2018-05-02T22:34:00.536Z,21.83
2018-05-02T22:35:00.531Z,21.79
2018-05-02T22:36:00.521Z,21.79
2018-05-02T22:37:00.514Z,21.71
2018-05-02T22:38:00.512Z,21.74
2018-05-02T22:39:00.502Z,21.77
2018-05-02T22:40:00.496Z,21.81
2018-05-02T22:41:00.490Z,21.81
2018-05-02T22:42:00.484Z,21.79
2018-05-02T22:43:00.475Z,21.73
2018-05-02T22:44:00.468Z,21.75
2018-05-02T22:45:00.462Z,21.70
2018-05-02T22:46:00.457Z,21.82
2018-05-02T22:47:00.454Z,21.79
2018-05-02T22:48:00.443Z,21.85
2018-05-02T22:49:00.436Z,21.82
2018-05-02T22:50:00.430Z,21.86
2018-05-02T22:51:00.424Z,21.77
2018-05-02T22:52:00.416Z,21.77
2018-05-02T22:53:00.410Z,21.82
2018-05-02T22:54:00.403Z,21.89
2018-05-02T22:55:00.397Z,21.86
2018-05-02T22:56:00.391Z,21.89
2018-05-02T22:57:00.385Z,21.79
2018-05-02T22:58:00.379Z,21.89
2018-05-02T22:59:00.382Z,21.81
2018-05-02T23:00:00.465Z,21.89
2018-05-02T23:01:00.360Z,21.89
2018-05-02T23:02:00.352Z,21.90
2018-05-02T23:03:00.346Z,21.93
2018-05-02T23:04:00.340Z,21.96
2018-05-02T23:05:00.334Z,21.79
2018-05-02T23:06:00.331Z,21.82
2018-05-02T23:07:00.319Z,21.83
2018-05-02T23:08:00.313Z,21.83
2018-05-02T23:09:00.308Z,21.73
2018-05-02T23:10:00.301Z,21.83
2018-05-02T23:11:00.293Z,21.85
2018-05-02T23:12:00.291Z,21.81
2018-05-02T23:13:00.282Z,21.82
2018-05-02T23:14:00.276Z,21.85
2018-05-02T23:15:00.268Z,21.83
2018-05-02T23:16:00.261Z,21.67
2018-05-02T23:17:00.255Z,21.68
2018-05-02T23:18:00.348Z,21.67
2018-05-02T23:19:00.241Z,21.68
2018-05-02T23:20:00.235Z,21.70
2018-05-02T23:21:00.230Z,21.67
2018-05-02T23:22:00.224Z,21.68
2018-05-02T23:23:00.215Z,21.71
2018-05-02T23:24:00.210Z,21.74
2018-05-02T23:25:00.202Z,21.66
2018-05-02T23:26:00.209Z,21.61
2018-05-02T23:27:00.199Z,21.68
2018-05-02T23:28:00.192Z,21.68
2018-05-02T23:29:00.187Z,21.63
2018-05-02T23:30:00.380Z,21.71
2018-05-02T23:31:00.173Z,21.64
2018-05-02T23:32:00.166Z,21.70
2018-05-02T23:33:00.158Z,21.68
2018-05-02T23:34:00.152Z,21.68
2018-05-02T23:35:00.144Z,21.64
2018-05-02T23:36:00.139Z,21.70
2018-05-02T23:37:00.133Z,21.67
2018-05-02T23:38:00.127Z,21.67
2018-05-02T23:39:00.121Z,21.67
2018-05-02T23:40:00.118Z,21.70
2018-05-02T23:41:00.107Z,21.68
2018-05-02T23:42:00.099Z,21.64
2018-05-02T23:43:00.093Z,21.66
2018-05-02T23:44:00.092Z,21.64
2018-05-02T23:45:00.080Z,21.59
2018-05-02T23:46:00.074Z,21.56
2018-05-02T23:47:00.065Z,21.58
2018-05-02T23:48:00.060Z,21.61
2018-05-02T23:49:00.054Z,21.67
2018-05-02T23:50:00.052Z,21.63
2018-05-02T23:51:00.039Z,21.66
2018-05-02T23:52:00.032Z,21.66
2018-05-02T23:53:00.025Z,21.68
2018-05-02T23:54:00.021Z,21.71
2018-05-02T23:55:00.012Z,21.55
2018-05-02T23:56:00.007Z,21.64
2018-05-02T23:57:00.000Z,21.63
2018-05-02T23:57:59.992Z,21.51
2018-05-02T23:58:59.985Z,21.51
2018-05-02T23:59:59.983Z,21.53
